sensor_id;sensor_type;location;lat;lon;timestamp;P1;durP1;ratioP1;P2;durP2;ratioP2
76852;SDS011;65825;52.232;10.566;2022-12-19T00:01:27;15.95;;;7.07;;
76852;SDS011;65825;52.232;10.566;2022-12-19T00:03:55;13.82;;;6.40;;
76852;SDS011;65825;52.232;10.566;2022-12-19T00:06:22;16.23;;;6.60;;
76852;SDS011;65825;52.232;10.566;2022-12-19T00:08:49;18.52;;;7.22;;
76852;SDS011;65825;52.232;10.566;2022-12-19T00:11:16;14.73;;;6.80;;
76852;SDS011;65825;52.232;10.566;2022-12-19T00:16:12;14.30;;;6.07;;
76852;SDS011;65825;52.232;10.566;2022-12-19T00:18:48;15.10;;;7.03;;
76852;SDS011;65825;52.232;10.566;2022-12-19T00:21:15;13.55;;;6.43;;
76852;SDS011;65825;52.232;10.566;2022-12-19T00:23:43;15.57;;;6.45;;
76852;SDS011;65825;52.232;10.566;2022-12-19T00:26:10;15.98;;;7.53;;
76852;SDS011;65825;52.232;10.566;2022-12-19T00:28:40;15.43;;;6.50;;
76852;SDS011;65825;52.232;10.566;2022-12-19T00:31:07;14.70;;;6.28;;
76852;SDS011;65825;52.232;10.566;2022-12-19T00:33:32;15.20;;;6.82;;
76852;SDS011;65825;52.232;10.566;2022-12-19T00:35:59;14.32;;;6.60;;
76852;SDS011;65825;52.232;10.566;2022-12-19T00:38:26;16.27;;;7.10;;
76852;SDS011;65825;52.232;10.566;2022-12-19T00:40:52;16.77;;;7.00;;
76852;SDS011;65825;52.232;10.566;2022-12-19T00:43:17;12.27;;;6.00;;
76852;SDS011;65825;52.232;10.566;2022-12-19T00:45:43;12.48;;;6.05;;
76852;SDS011;65825;52.232;10.566;2022-12-19T00:48:08;11.23;;;6.43;;
76852;SDS011;65825;52.232;10.566;2022-12-19T00:50:33;15.25;;;6.70;;
76852;SDS011;65825;52.232;10.566;2022-12-19T00:52:59;11.53;;;6.37;;
76852;SDS011;65825;52.232;10.566;2022-12-19T00:55:24;14.63;;;6.40;;
76852;SDS011;65825;52.232;10.566;2022-12-19T00:57:49;14.83;;;6.67;;
76852;SDS011;65825;52.232;10.566;2022-12-19T01:00:15;17.80;;;7.70;;
76852;SDS011;65825;52.232;10.566;2022-12-19T01:02:41;15.73;;;7.22;;
76852;SDS011;65825;52.232;10.566;2022-12-19T01:05:07;15.55;;;6.97;;
76852;SDS011;65825;52.232;10.566;2022-12-19T01:07:33;14.18;;;6.60;;
76852;SDS011;65825;52.232;10.566;2022-12-19T01:09:58;16.13;;;6.68;;
76852;SDS011;65825;52.232;10.566;2022-12-19T01:12:24;11.00;;;5.95;;
76852;SDS011;65825;52.232;10.566;2022-12-19T01:15:08;13.05;;;6.20;;
76852;SDS011;65825;52.232;10.566;2022-12-19T01:17:33;14.73;;;6.20;;
76852;SDS011;65825;52.232;10.566;2022-12-19T01:19:59;14.32;;;6.47;;
76852;SDS011;65825;52.232;10.566;2022-12-19T01:22:24;15.63;;;6.63;;
76852;SDS011;65825;52.232;10.566;2022-12-19T01:24:50;15.13;;;7.07;;
76852;SDS011;65825;52.232;10.566;2022-12-19T01:27:15;13.23;;;6.17;;
76852;SDS011;65825;52.232;10.566;2022-12-19T01:29:40;15.18;;;6.95;;
76852;SDS011;65825;52.232;10.566;2022-12-19T01:32:06;17.10;;;7.47;;
76852;SDS011;65825;52.232;10.566;2022-12-19T01:34:31;15.68;;;7.20;;
76852;SDS011;65825;52.232;10.566;2022-12-19T01:36:57;14.13;;;7.03;;
76852;SDS011;65825;52.232;10.566;2022-12-19T01:39:22;13.50;;;6.57;;
76852;SDS011;65825;52.232;10.566;2022-12-19T01:41:47;12.10;;;6.07;;
76852;SDS011;65825;52.232;10.566;2022-12-19T01:44:12;13.82;;;6.32;;
76852;SDS011;65825;52.232;10.566;2022-12-19T01:49:35;13.27;;;6.15;;
76852;SDS011;65825;52.232;10.566;2022-12-19T01:52:05;14.63;;;6.03;;
76852;SDS011;65825;52.232;10.566;2022-12-19T01:54:36;14.00;;;5.70;;
76852;SDS011;65825;52.232;10.566;2022-12-19T01:57:06;13.82;;;6.20;;
76852;SDS011;65825;52.232;10.566;2022-12-19T01:59:35;14.43;;;6.45;;
76852;SDS011;65825;52.232;10.566;2022-12-19T02:02:40;12.68;;;6.20;;
76852;SDS011;65825;52.232;10.566;2022-12-19T02:04:58;15.40;;;7.00;;
76852;SDS011;65825;52.232;10.566;2022-12-19T02:07:25;13.07;;;5.60;;
76852;SDS011;65825;52.232;10.566;2022-12-19T02:09:51;14.30;;;6.38;;
76852;SDS011;65825;52.232;10.566;2022-12-19T02:12:18;15.15;;;7.03;;
76852;SDS011;65825;52.232;10.566;2022-12-19T02:14:44;15.32;;;6.40;;
76852;SDS011;65825;52.232;10.566;2022-12-19T02:20:08;14.52;;;6.53;;
76852;SDS011;65825;52.232;10.566;2022-12-19T02:28:11;15.63;;;6.53;;
76852;SDS011;65825;52.232;10.566;2022-12-19T02:30:47;12.77;;;5.93;;
76852;SDS011;65825;52.232;10.566;2022-12-19T02:33:38;14.30;;;7.30;;
76852;SDS011;65825;52.232;10.566;2022-12-19T02:36:11;18.10;;;6.78;;
76852;SDS011;65825;52.232;10.566;2022-12-19T02:41:28;13.55;;;6.65;;
76852;SDS011;65825;52.232;10.566;2022-12-19T02:44:07;15.13;;;6.53;;
76852;SDS011;65825;52.232;10.566;2022-12-19T02:46:41;13.38;;;6.10;;
76852;SDS011;65825;52.232;10.566;2022-12-19T02:49:08;10.32;;;5.38;;
76852;SDS011;65825;52.232;10.566;2022-12-19T02:51:35;12.10;;;6.13;;
76852;SDS011;65825;52.232;10.566;2022-12-19T02:54:01;12.45;;;5.97;;
76852;SDS011;65825;52.232;10.566;2022-12-19T02:56:37;13.65;;;6.78;;
76852;SDS011;65825;52.232;10.566;2022-12-19T02:59:20;13.05;;;6.35;;
76852;SDS011;65825;52.232;10.566;2022-12-19T03:10:41;13.73;;;6.18;;
76852;SDS011;65825;52.232;10.566;2022-12-19T03:15:44;12.55;;;5.90;;
76852;SDS011;65825;52.232;10.566;2022-12-19T03:18:10;11.57;;;5.40;;
76852;SDS011;65825;52.232;10.566;2022-12-19T03:20:42;11.05;;;6.13;;
76852;SDS011;65825;52.232;10.566;2022-12-19T03:23:12;13.68;;;6.18;;
76852;SDS011;65825;52.232;10.566;2022-12-19T03:25:39;11.70;;;6.05;;
76852;SDS011;65825;52.232;10.566;2022-12-19T03:28:09;13.95;;;5.97;;
76852;SDS011;65825;52.232;10.566;2022-12-19T03:30:40;11.90;;;5.63;;
76852;SDS011;65825;52.232;10.566;2022-12-19T03:33:08;12.32;;;6.38;;
76852;SDS011;65825;52.232;10.566;2022-12-19T03:35:36;13.57;;;6.00;;
76852;SDS011;65825;52.232;10.566;2022-12-19T03:38:03;12.75;;;5.70;;
76852;SDS011;65825;52.232;10.566;2022-12-19T03:40:31;9.50;;;5.18;;
76852;SDS011;65825;52.232;10.566;2022-12-19T03:43:00;11.75;;;5.90;;
76852;SDS011;65825;52.232;10.566;2022-12-19T03:45:45;11.75;;;5.68;;
76852;SDS011;65825;52.232;10.566;2022-12-19T03:48:17;13.10;;;5.80;;
76852;SDS011;65825;52.232;10.566;2022-12-19T03:57:08;14.43;;;6.55;;
76852;SDS011;65825;52.232;10.566;2022-12-19T04:02:00;12.43;;;5.53;;
76852;SDS011;65825;52.232;10.566;2022-12-19T04:04:26;10.57;;;5.35;;
76852;SDS011;65825;52.232;10.566;2022-12-19T04:06:54;10.63;;;5.50;;
76852;SDS011;65825;52.232;10.566;2022-12-19T04:09:23;10.52;;;5.30;;
76852;SDS011;65825;52.232;10.566;2022-12-19T04:11:50;14.93;;;6.40;;
76852;SDS011;65825;52.232;10.566;2022-12-19T04:14:34;11.38;;;5.70;;
76852;SDS011;65825;52.232;10.566;2022-12-19T04:19:43;10.80;;;5.18;;
76852;SDS011;65825;52.232;10.566;2022-12-19T04:22:25;11.20;;;5.75;;
76852;SDS011;65825;52.232;10.566;2022-12-19T04:25:04;11.95;;;5.63;;
76852;SDS011;65825;52.232;10.566;2022-12-19T04:27:34;10.07;;;5.13;;
76852;SDS011;65825;52.232;10.566;2022-12-19T04:30:03;11.88;;;5.53;;
76852;SDS011;65825;52.232;10.566;2022-12-19T04:32:31;12.45;;;5.68;;
76852;SDS011;65825;52.232;10.566;2022-12-19T04:34:58;9.70;;;5.38;;
76852;SDS011;65825;52.232;10.566;2022-12-19T04:37:23;10.88;;;5.50;;
76852;SDS011;65825;52.232;10.566;2022-12-19T04:39:49;11.93;;;5.75;;
76852;SDS011;65825;52.232;10.566;2022-12-19T04:42:14;12.13;;;5.35;;
76852;SDS011;65825;52.232;10.566;2022-12-19T04:44:40;13.18;;;6.15;;
76852;SDS011;65825;52.232;10.566;2022-12-19T04:47:05;12.57;;;5.87;;
76852;SDS011;65825;52.232;10.566;2022-12-19T04:49:30;9.98;;;5.13;;
76852;SDS011;65825;52.232;10.566;2022-12-19T04:51:56;10.70;;;5.17;;
76852;SDS011;65825;52.232;10.566;2022-12-19T04:54:21;8.67;;;4.87;;
76852;SDS011;65825;52.232;10.566;2022-12-19T04:56:46;10.43;;;5.00;;
76852;SDS011;65825;52.232;10.566;2022-12-19T04:59:11;10.47;;;5.17;;
76852;SDS011;65825;52.232;10.566;2022-12-19T05:01:37;10.18;;;5.22;;
76852;SDS011;65825;52.232;10.566;2022-12-19T05:04:02;11.30;;;5.07;;
76852;SDS011;65825;52.232;10.566;2022-12-19T05:06:28;10.00;;;4.93;;
76852;SDS011;65825;52.232;10.566;2022-12-19T05:08:53;11.25;;;5.40;;
76852;SDS011;65825;52.232;10.566;2022-12-19T05:11:19;10.18;;;5.13;;
76852;SDS011;65825;52.232;10.566;2022-12-19T05:13:44;9.67;;;4.80;;
76852;SDS011;65825;52.232;10.566;2022-12-19T05:16:10;10.18;;;4.75;;
76852;SDS011;65825;52.232;10.566;2022-12-19T05:21:02;9.77;;;5.30;;
76852;SDS011;65825;52.232;10.566;2022-12-19T05:23:28;9.85;;;5.03;;
76852;SDS011;65825;52.232;10.566;2022-12-19T05:25:57;10.65;;;4.85;;
76852;SDS011;65825;52.232;10.566;2022-12-19T05:28:24;7.70;;;4.22;;
76852;SDS011;65825;52.232;10.566;2022-12-19T05:30:50;10.77;;;5.10;;
76852;SDS011;65825;52.232;10.566;2022-12-19T05:33:15;8.45;;;4.78;;
76852;SDS011;65825;52.232;10.566;2022-12-19T05:35:40;9.27;;;4.63;;
76852;SDS011;65825;52.232;10.566;2022-12-19T05:38:06;12.43;;;5.53;;
76852;SDS011;65825;52.232;10.566;2022-12-19T05:40:31;10.52;;;5.45;;
76852;SDS011;65825;52.232;10.566;2022-12-19T05:42:57;8.98;;;4.68;;
76852;SDS011;65825;52.232;10.566;2022-12-19T05:45:22;9.40;;;4.93;;
76852;SDS011;65825;52.232;10.566;2022-12-19T05:47:47;9.50;;;5.00;;
76852;SDS011;65825;52.232;10.566;2022-12-19T05:50:16;11.25;;;5.13;;
76852;SDS011;65825;52.232;10.566;2022-12-19T05:52:42;10.18;;;4.82;;
76852;SDS011;65825;52.232;10.566;2022-12-19T05:55:08;10.00;;;5.15;;
76852;SDS011;65825;52.232;10.566;2022-12-19T05:57:34;9.75;;;4.65;;
76852;SDS011;65825;52.232;10.566;2022-12-19T06:00:00;10.80;;;5.18;;
76852;SDS011;65825;52.232;10.566;2022-12-19T06:02:25;9.38;;;5.00;;
76852;SDS011;65825;52.232;10.566;2022-12-19T06:04:51;10.13;;;4.97;;
76852;SDS011;65825;52.232;10.566;2022-12-19T06:07:16;9.05;;;5.38;;
76852;SDS011;65825;52.232;10.566;2022-12-19T06:09:42;8.77;;;4.90;;
76852;SDS011;65825;52.232;10.566;2022-12-19T06:12:07;8.13;;;4.50;;
76852;SDS011;65825;52.232;10.566;2022-12-19T06:14:32;12.60;;;6.68;;
76852;SDS011;65825;52.232;10.566;2022-12-19T06:16:58;14.40;;;8.27;;
76852;SDS011;65825;52.232;10.566;2022-12-19T06:19:23;12.20;;;6.47;;
76852;SDS011;65825;52.232;10.566;2022-12-19T06:21:48;10.82;;;6.05;;
76852;SDS011;65825;52.232;10.566;2022-12-19T06:24:14;9.40;;;5.10;;
76852;SDS011;65825;52.232;10.566;2022-12-19T06:26:39;9.45;;;4.88;;
76852;SDS011;65825;52.232;10.566;2022-12-19T06:29:05;8.93;;;4.87;;
76852;SDS011;65825;52.232;10.566;2022-12-19T06:31:30;10.50;;;4.83;;
76852;SDS011;65825;52.232;10.566;2022-12-19T06:33:55;10.07;;;5.00;;
76852;SDS011;65825;52.232;10.566;2022-12-19T06:36:21;9.63;;;5.20;;
76852;SDS011;65825;52.232;10.566;2022-12-19T06:38:48;8.38;;;4.75;;
76852;SDS011;65825;52.232;10.566;2022-12-19T06:41:15;8.00;;;4.80;;
76852;SDS011;65825;52.232;10.566;2022-12-19T06:44:00;8.23;;;4.90;;
76852;SDS011;65825;52.232;10.566;2022-12-19T06:46:28;10.00;;;5.15;;
76852;SDS011;65825;52.232;10.566;2022-12-19T06:48:54;9.25;;;5.13;;
76852;SDS011;65825;52.232;10.566;2022-12-19T06:51:19;8.07;;;5.18;;
76852;SDS011;65825;52.232;10.566;2022-12-19T06:53:45;8.57;;;4.63;;
76852;SDS011;65825;52.232;10.566;2022-12-19T06:56:11;12.90;;;5.32;;
76852;SDS011;65825;52.232;10.566;2022-12-19T06:58:38;9.77;;;5.20;;
76852;SDS011;65825;52.232;10.566;2022-12-19T07:01:03;11.63;;;4.97;;
76852;SDS011;65825;52.232;10.566;2022-12-19T07:03:36;11.30;;;5.15;;
76852;SDS011;65825;52.232;10.566;2022-12-19T07:06:04;11.77;;;5.40;;
76852;SDS011;65825;52.232;10.566;2022-12-19T07:08:30;10.57;;;5.00;;
76852;SDS011;65825;52.232;10.566;2022-12-19T07:10:56;10.80;;;6.43;;
76852;SDS011;65825;52.232;10.566;2022-12-19T07:13:21;9.77;;;5.47;;
76852;SDS011;65825;52.232;10.566;2022-12-19T07:18:14;11.88;;;6.30;;
76852;SDS011;65825;52.232;10.566;2022-12-19T07:20:40;9.45;;;5.30;;
76852;SDS011;65825;52.232;10.566;2022-12-19T07:23:08;9.88;;;5.53;;
76852;SDS011;65825;52.232;10.566;2022-12-19T07:25:36;12.40;;;6.57;;
76852;SDS011;65825;52.232;10.566;2022-12-19T07:28:01;11.52;;;6.10;;
76852;SDS011;65825;52.232;10.566;2022-12-19T07:30:27;10.85;;;5.65;;
76852;SDS011;65825;52.232;10.566;2022-12-19T07:32:52;11.25;;;6.20;;
76852;SDS011;65825;52.232;10.566;2022-12-19T07:35:18;11.50;;;5.65;;
76852;SDS011;65825;52.232;10.566;2022-12-19T07:37:43;10.93;;;6.22;;
76852;SDS011;65825;52.232;10.566;2022-12-19T07:40:08;11.52;;;6.65;;
76852;SDS011;65825;52.232;10.566;2022-12-19T07:42:35;14.40;;;8.50;;
76852;SDS011;65825;52.232;10.566;2022-12-19T07:45:00;12.98;;;6.88;;
76852;SDS011;65825;52.232;10.566;2022-12-19T07:47:26;14.90;;;8.73;;
76852;SDS011;65825;52.232;10.566;2022-12-19T07:49:51;11.77;;;6.95;;
76852;SDS011;65825;52.232;10.566;2022-12-19T07:52:17;12.93;;;6.97;;
76852;SDS011;65825;52.232;10.566;2022-12-19T07:54:42;15.50;;;7.57;;
76852;SDS011;65825;52.232;10.566;2022-12-19T07:57:07;11.70;;;6.27;;
76852;SDS011;65825;52.232;10.566;2022-12-19T07:59:33;11.80;;;6.75;;
76852;SDS011;65825;52.232;10.566;2022-12-19T08:01:58;12.85;;;6.93;;
76852;SDS011;65825;52.232;10.566;2022-12-19T08:04:24;14.30;;;6.53;;
76852;SDS011;65825;52.232;10.566;2022-12-19T08:06:49;17.15;;;9.18;;
76852;SDS011;65825;52.232;10.566;2022-12-19T08:09:14;14.97;;;8.10;;
76852;SDS011;65825;52.232;10.566;2022-12-19T08:11:40;22.52;;;12.07;;
76852;SDS011;65825;52.232;10.566;2022-12-19T08:14:05;22.83;;;11.87;;
76852;SDS011;65825;52.232;10.566;2022-12-19T08:16:30;16.88;;;9.55;;
76852;SDS011;65825;52.232;10.566;2022-12-19T08:18:56;32.33;;;16.17;;
76852;SDS011;65825;52.232;10.566;2022-12-19T08:21:21;26.63;;;13.82;;
76852;SDS011;65825;52.232;10.566;2022-12-19T08:23:47;12.60;;;6.93;;
76852;SDS011;65825;52.232;10.566;2022-12-19T08:26:14;11.77;;;5.72;;
76852;SDS011;65825;52.232;10.566;2022-12-19T08:28:41;11.50;;;6.32;;
76852;SDS011;65825;52.232;10.566;2022-12-19T08:31:08;13.02;;;6.15;;
76852;SDS011;65825;52.232;10.566;2022-12-19T08:33:35;11.85;;;6.03;;
76852;SDS011;65825;52.232;10.566;2022-12-19T08:36:04;12.02;;;6.15;;
76852;SDS011;65825;52.232;10.566;2022-12-19T08:38:30;9.70;;;5.55;;
76852;SDS011;65825;52.232;10.566;2022-12-19T08:40:55;12.93;;;5.95;;
76852;SDS011;65825;52.232;10.566;2022-12-19T08:43:21;12.02;;;6.18;;
76852;SDS011;65825;52.232;10.566;2022-12-19T08:45:49;12.30;;;6.30;;
76852;SDS011;65825;52.232;10.566;2022-12-19T08:48:15;13.90;;;6.70;;
76852;SDS011;65825;52.232;10.566;2022-12-19T08:50:55;13.93;;;6.97;;
76852;SDS011;65825;52.232;10.566;2022-12-19T08:53:22;14.15;;;7.35;;
76852;SDS011;65825;52.232;10.566;2022-12-19T08:55:52;16.05;;;7.53;;
76852;SDS011;65825;52.232;10.566;2022-12-19T08:58:26;17.25;;;7.70;;
76852;SDS011;65825;52.232;10.566;2022-12-19T09:00:52;20.60;;;10.45;;
76852;SDS011;65825;52.232;10.566;2022-12-19T09:03:21;14.50;;;7.43;;
76852;SDS011;65825;52.232;10.566;2022-12-19T09:05:56;14.77;;;8.20;;
76852;SDS011;65825;52.232;10.566;2022-12-19T09:08:26;19.90;;;8.35;;
76852;SDS011;65825;52.232;10.566;2022-12-19T09:10:58;18.42;;;8.95;;
76852;SDS011;65825;52.232;10.566;2022-12-19T09:13:25;16.65;;;7.63;;
76852;SDS011;65825;52.232;10.566;2022-12-19T09:16:10;15.13;;;7.57;;
76852;SDS011;65825;52.232;10.566;2022-12-19T09:18:37;14.57;;;7.55;;
76852;SDS011;65825;52.232;10.566;2022-12-19T09:21:03;14.88;;;7.50;;
76852;SDS011;65825;52.232;10.566;2022-12-19T09:23:29;17.58;;;8.15;;
76852;SDS011;65825;52.232;10.566;2022-12-19T09:26:02;19.83;;;8.32;;
76852;SDS011;65825;52.232;10.566;2022-12-19T09:28:32;14.73;;;7.60;;
76852;SDS011;65825;52.232;10.566;2022-12-19T09:30:59;15.80;;;7.15;;
76852;SDS011;65825;52.232;10.566;2022-12-19T09:33:26;13.77;;;7.35;;
76852;SDS011;65825;52.232;10.566;2022-12-19T09:35:52;14.25;;;6.93;;
76852;SDS011;65825;52.232;10.566;2022-12-19T09:38:19;17.88;;;7.63;;
76852;SDS011;65825;52.232;10.566;2022-12-19T09:41:05;66.70;;;26.13;;
76852;SDS011;65825;52.232;10.566;2022-12-19T09:49:08;52.53;;;18.80;;
76852;SDS011;65825;52.232;10.566;2022-12-19T09:51:51;62.70;;;22.58;;
76852;SDS011;65825;52.232;10.566;2022-12-19T09:56:58;16.63;;;7.82;;
76852;SDS011;65825;52.232;10.566;2022-12-19T09:59:28;17.50;;;8.20;;
76852;SDS011;65825;52.232;10.566;2022-12-19T10:02:00;10.68;;;5.50;;
76852;SDS011;65825;52.232;10.566;2022-12-19T10:04:39;12.38;;;6.40;;
76852;SDS011;65825;52.232;10.566;2022-12-19T10:07:12;12.45;;;6.38;;
76852;SDS011;65825;52.232;10.566;2022-12-19T10:09:38;12.93;;;6.35;;
76852;SDS011;65825;52.232;10.566;2022-12-19T10:22:35;10.85;;;5.80;;
76852;SDS011;65825;52.232;10.566;2022-12-19T10:25:27;12.68;;;5.85;;
76852;SDS011;65825;52.232;10.566;2022-12-19T10:28:15;12.93;;;6.22;;
76852;SDS011;65825;52.232;10.566;2022-12-19T10:31:29;15.23;;;7.00;;
76852;SDS011;65825;52.232;10.566;2022-12-19T10:33:37;14.25;;;7.45;;
76852;SDS011;65825;52.232;10.566;2022-12-19T10:36:15;15.38;;;6.90;;
76852;SDS011;65825;52.232;10.566;2022-12-19T10:38:55;17.63;;;8.63;;
76852;SDS011;65825;52.232;10.566;2022-12-19T10:41:32;14.15;;;6.97;;
76852;SDS011;65825;52.232;10.566;2022-12-19T10:44:05;13.90;;;7.50;;
76852;SDS011;65825;52.232;10.566;2022-12-19T10:49:11;13.77;;;7.68;;
76852;SDS011;65825;52.232;10.566;2022-12-19T10:54:21;12.83;;;7.07;;
76852;SDS011;65825;52.232;10.566;2022-12-19T10:56:47;13.48;;;7.20;;
76852;SDS011;65825;52.232;10.566;2022-12-19T10:59:17;12.43;;;7.10;;
76852;SDS011;65825;52.232;10.566;2022-12-19T11:01:44;14.45;;;7.85;;
76852;SDS011;65825;52.232;10.566;2022-12-19T11:07:04;17.90;;;8.77;;
76852;SDS011;65825;52.232;10.566;2022-12-19T11:14:31;19.25;;;9.15;;
76852;SDS011;65825;52.232;10.566;2022-12-19T11:16:58;20.40;;;10.38;;
76852;SDS011;65825;52.232;10.566;2022-12-19T11:19:31;19.23;;;9.75;;
76852;SDS011;65825;52.232;10.566;2022-12-19T11:22:13;18.88;;;10.07;;
76852;SDS011;65825;52.232;10.566;2022-12-19T11:24:48;16.08;;;8.50;;
76852;SDS011;65825;52.232;10.566;2022-12-19T11:28:02;18.55;;;9.10;;
76852;SDS011;65825;52.232;10.566;2022-12-19T11:32:42;20.67;;;10.07;;
76852;SDS011;65825;52.232;10.566;2022-12-19T11:35:20;18.63;;;8.95;;
76852;SDS011;65825;52.232;10.566;2022-12-19T11:37:51;17.65;;;9.50;;
76852;SDS011;65825;52.232;10.566;2022-12-19T11:40:23;20.85;;;10.13;;
76852;SDS011;65825;52.232;10.566;2022-12-19T11:42:53;15.38;;;7.90;;
76852;SDS011;65825;52.232;10.566;2022-12-19T11:50:58;19.33;;;9.48;;
76852;SDS011;65825;52.232;10.566;2022-12-19T11:53:32;16.13;;;7.82;;
76852;SDS011;65825;52.232;10.566;2022-12-19T11:56:07;19.20;;;8.85;;
76852;SDS011;65825;52.232;10.566;2022-12-19T11:58:37;19.83;;;9.20;;
76852;SDS011;65825;52.232;10.566;2022-12-19T12:01:07;16.38;;;8.45;;
76852;SDS011;65825;52.232;10.566;2022-12-19T12:06:12;16.67;;;8.32;;
76852;SDS011;65825;52.232;10.566;2022-12-19T12:08:48;17.67;;;8.55;;
76852;SDS011;65825;52.232;10.566;2022-12-19T12:16:56;18.42;;;8.52;;
76852;SDS011;65825;52.232;10.566;2022-12-19T12:30:22;18.77;;;9.05;;
76852;SDS011;65825;52.232;10.566;2022-12-19T12:32:59;18.92;;;8.98;;
76852;SDS011;65825;52.232;10.566;2022-12-19T12:35:35;17.95;;;8.55;;
76852;SDS011;65825;52.232;10.566;2022-12-19T12:38:23;17.73;;;8.55;;
76852;SDS011;65825;52.232;10.566;2022-12-19T12:44:14;16.63;;;8.00;;
76852;SDS011;65825;52.232;10.566;2022-12-19T12:46:43;17.27;;;8.57;;
76852;SDS011;65825;52.232;10.566;2022-12-19T12:51:58;17.38;;;7.72;;
76852;SDS011;65825;52.232;10.566;2022-12-19T12:54:27;19.38;;;8.80;;
76852;SDS011;65825;52.232;10.566;2022-12-19T12:56:58;16.15;;;7.93;;
76852;SDS011;65825;52.232;10.566;2022-12-19T12:59:26;18.77;;;9.10;;
76852;SDS011;65825;52.232;10.566;2022-12-19T13:01:57;18.58;;;8.57;;
76852;SDS011;65825;52.232;10.566;2022-12-19T13:04:42;19.75;;;8.35;;
76852;SDS011;65825;52.232;10.566;2022-12-19T13:22:43;20.93;;;9.30;;
76852;SDS011;65825;52.232;10.566;2022-12-19T13:27:54;17.30;;;8.20;;
76852;SDS011;65825;52.232;10.566;2022-12-19T13:30:21;18.30;;;8.77;;
76852;SDS011;65825;52.232;10.566;2022-12-19T13:40:25;22.75;;;10.30;;
76852;SDS011;65825;52.232;10.566;2022-12-19T13:45:53;21.48;;;9.63;;
76852;SDS011;65825;52.232;10.566;2022-12-19T13:48:33;22.52;;;10.57;;
76852;SDS011;65825;52.232;10.566;2022-12-19T13:51:05;22.27;;;11.35;;
76852;SDS011;65825;52.232;10.566;2022-12-19T13:53:32;21.63;;;9.13;;
76852;SDS011;65825;52.232;10.566;2022-12-19T13:55:59;20.88;;;9.85;;
76852;SDS011;65825;52.232;10.566;2022-12-19T13:58:26;20.30;;;8.82;;
76852;SDS011;65825;52.232;10.566;2022-12-19T14:00:54;16.58;;;8.35;;
76852;SDS011;65825;52.232;10.566;2022-12-19T14:03:28;21.65;;;9.55;;
76852;SDS011;65825;52.232;10.566;2022-12-19T14:06:21;20.35;;;9.43;;
76852;SDS011;65825;52.232;10.566;2022-12-19T14:11:23;19.10;;;9.13;;
76852;SDS011;65825;52.232;10.566;2022-12-19T14:13:49;17.65;;;8.82;;
76852;SDS011;65825;52.232;10.566;2022-12-19T14:16:37;15.63;;;7.65;;
76852;SDS011;65825;52.232;10.566;2022-12-19T14:19:02;13.00;;;7.05;;
76852;SDS011;65825;52.232;10.566;2022-12-19T14:21:28;18.52;;;9.10;;
76852;SDS011;65825;52.232;10.566;2022-12-19T14:26:45;18.80;;;8.63;;
76852;SDS011;65825;52.232;10.566;2022-12-19T14:29:21;19.10;;;9.32;;
76852;SDS011;65825;52.232;10.566;2022-12-19T14:31:49;19.20;;;9.15;;
76852;SDS011;65825;52.232;10.566;2022-12-19T14:34:19;19.00;;;8.35;;
76852;SDS011;65825;52.232;10.566;2022-12-19T14:36:51;21.67;;;9.57;;
76852;SDS011;65825;52.232;10.566;2022-12-19T14:39:18;20.27;;;9.05;;
76852;SDS011;65825;52.232;10.566;2022-12-19T14:41:47;16.88;;;8.10;;
76852;SDS011;65825;52.232;10.566;2022-12-19T14:44:44;23.40;;;9.27;;
76852;SDS011;65825;52.232;10.566;2022-12-19T14:49:58;18.92;;;9.13;;
76852;SDS011;65825;52.232;10.566;2022-12-19T14:52:38;22.77;;;9.07;;
76852;SDS011;65825;52.232;10.566;2022-12-19T14:55:14;21.50;;;9.52;;
76852;SDS011;65825;52.232;10.566;2022-12-19T14:57:49;20.88;;;9.43;;
76852;SDS011;65825;52.232;10.566;2022-12-19T15:00:28;19.92;;;8.40;;
76852;SDS011;65825;52.232;10.566;2022-12-19T15:02:55;22.48;;;8.95;;
76852;SDS011;65825;52.232;10.566;2022-12-19T15:05:22;17.90;;;7.72;;
76852;SDS011;65825;52.232;10.566;2022-12-19T15:07:48;19.55;;;9.43;;
76852;SDS011;65825;52.232;10.566;2022-12-19T15:10:17;17.80;;;7.80;;
76852;SDS011;65825;52.232;10.566;2022-12-19T15:12:48;20.77;;;8.75;;
76852;SDS011;65825;52.232;10.566;2022-12-19T15:20:49;21.35;;;9.68;;
76852;SDS011;65825;52.232;10.566;2022-12-19T15:23:15;19.63;;;8.90;;
76852;SDS011;65825;52.232;10.566;2022-12-19T15:25:41;17.73;;;8.93;;
76852;SDS011;65825;52.232;10.566;2022-12-19T15:28:14;19.67;;;9.32;;
76852;SDS011;65825;52.232;10.566;2022-12-19T15:30:46;19.40;;;8.57;;
76852;SDS011;65825;52.232;10.566;2022-12-19T15:33:15;19.50;;;8.95;;
76852;SDS011;65825;52.232;10.566;2022-12-19T15:35:41;19.85;;;8.68;;
76852;SDS011;65825;52.232;10.566;2022-12-19T15:38:07;19.48;;;9.80;;
76852;SDS011;65825;52.232;10.566;2022-12-19T15:40:35;16.95;;;7.95;;
76852;SDS011;65825;52.232;10.566;2022-12-19T15:43:04;15.65;;;8.18;;
76852;SDS011;65825;52.232;10.566;2022-12-19T15:45:30;18.05;;;8.82;;
76852;SDS011;65825;52.232;10.566;2022-12-19T15:47:56;16.20;;;7.70;;
76852;SDS011;65825;52.232;10.566;2022-12-19T15:50:22;17.73;;;7.33;;
76852;SDS011;65825;52.232;10.566;2022-12-19T15:52:54;18.38;;;7.63;;
76852;SDS011;65825;52.232;10.566;2022-12-19T15:55:21;17.10;;;7.93;;
76852;SDS011;65825;52.232;10.566;2022-12-19T15:57:51;18.52;;;8.63;;
76852;SDS011;65825;52.232;10.566;2022-12-19T16:00:23;17.23;;;8.05;;
76852;SDS011;65825;52.232;10.566;2022-12-19T16:02:52;16.45;;;8.38;;
76852;SDS011;65825;52.232;10.566;2022-12-19T16:05:19;16.73;;;8.20;;
76852;SDS011;65825;52.232;10.566;2022-12-19T16:07:46;16.65;;;8.35;;
76852;SDS011;65825;52.232;10.566;2022-12-19T16:10:14;17.63;;;8.60;;
76852;SDS011;65825;52.232;10.566;2022-12-19T16:15:14;16.67;;;8.90;;
76852;SDS011;65825;52.232;10.566;2022-12-19T16:17:45;18.88;;;8.95;;
76852;SDS011;65825;52.232;10.566;2022-12-19T16:20:15;15.90;;;7.77;;
76852;SDS011;65825;52.232;10.566;2022-12-19T16:22:46;14.02;;;6.93;;
76852;SDS011;65825;52.232;10.566;2022-12-19T16:25:14;17.58;;;8.73;;
76852;SDS011;65825;52.232;10.566;2022-12-19T16:27:41;15.25;;;7.30;;
76852;SDS011;65825;52.232;10.566;2022-12-19T16:32:41;17.42;;;7.72;;
76852;SDS011;65825;52.232;10.566;2022-12-19T16:35:11;17.83;;;8.40;;
76852;SDS011;65825;52.232;10.566;2022-12-19T16:37:38;18.20;;;7.90;;
76852;SDS011;65825;52.232;10.566;2022-12-19T16:40:03;14.77;;;7.60;;
76852;SDS011;65825;52.232;10.566;2022-12-19T16:42:29;16.70;;;7.90;;
76852;SDS011;65825;52.232;10.566;2022-12-19T16:44:56;16.88;;;8.18;;
76852;SDS011;65825;52.232;10.566;2022-12-19T16:47:21;14.98;;;7.43;;
76852;SDS011;65825;52.232;10.566;2022-12-19T16:49:46;12.25;;;6.60;;
76852;SDS011;65825;52.232;10.566;2022-12-19T16:52:12;17.75;;;8.55;;
76852;SDS011;65825;52.232;10.566;2022-12-19T16:54:37;16.05;;;7.65;;
76852;SDS011;65825;52.232;10.566;2022-12-19T16:57:03;15.50;;;7.78;;
76852;SDS011;65825;52.232;10.566;2022-12-19T16:59:37;17.10;;;7.55;;
76852;SDS011;65825;52.232;10.566;2022-12-19T17:05:03;16.52;;;7.43;;
76852;SDS011;65825;52.232;10.566;2022-12-19T17:07:30;15.02;;;7.57;;
76852;SDS011;65825;52.232;10.566;2022-12-19T17:09:56;17.58;;;8.35;;
76852;SDS011;65825;52.232;10.566;2022-12-19T17:12:21;20.42;;;8.52;;